CU-0019 weather

Altagracia Airport
Santiago de Cuba, Cuba

Public forecast

Using degrees Celsius for public forecast. Weather courtesy of forecast.io.

Closest aviation weather report (METAR) to Altagracia Airport

Closest report is Frank Pais International Airport, 25.8 nm (47.7 km) NNW. Retrieved 2019/11/17 17:50 UTC (1 hour ago):

MUHG 171750Z 35007KT 9000 BKN018 29/22 Q1009

Closest aviation forecast (TAF) to Altagracia Airport

Closest forecast is Frank Pais International Airport, 25.8 nm (47.7 km) NNW. Retrieved 2019/11/17 18:03 UTC (52 minutes ago):

TAF TAF MUHG 171700Z 1718/1818 VRB03KT 9000 BKN020 TEMPO 1718/1724 5000 SHRA SCT018CB BKN020